createdAt,value
2022-09-04T00:00:22.167Z,101470.13
2022-09-04T00:03:35.481Z,101478.16
2022-09-04T00:06:49.645Z,101472.81
2022-09-04T00:10:05.562Z,101473.88
2022-09-04T00:13:13.183Z,101478.28
2022-09-04T00:16:20.759Z,101463.06
2022-09-04T00:19:33.003Z,101477.06
2022-09-04T00:22:47.901Z,101481.91
2022-09-04T00:25:58.744Z,101491.25
2022-09-04T00:29:07.223Z,101481.81
2022-09-04T00:32:20.904Z,101484.84
2022-09-04T00:35:26.629Z,101484.34
2022-09-04T00:38:41.999Z,101489.34
2022-09-04T00:41:59.317Z,101487.53
2022-09-04T00:45:18.189Z,101490.31
2022-09-04T00:48:41.939Z,101492.03
2022-09-04T00:51:55.784Z,101490.41
2022-09-04T00:55:16.362Z,101491.88
2022-09-04T00:58:31.264Z,101489.09
2022-09-04T01:01:36.772Z,101482.53
2022-09-04T01:04:50.052Z,101487.03
2022-09-04T01:08:03.468Z,101490.47
2022-09-04T01:11:15.380Z,101494.13
2022-09-04T01:14:25.346Z,101496.19
2022-09-04T01:17:35.055Z,101490.56
2022-09-04T01:21:09.305Z,101496.19
2022-09-04T01:24:27.861Z,101498.97
2022-09-04T01:27:37.823Z,101495.22
2022-09-04T01:30:48.613Z,101494.28
2022-09-04T01:34:03.952Z,101494.09
2022-09-04T01:37:18.888Z,101496.53
2022-09-04T01:40:36.015Z,101487.06
2022-09-04T01:43:41.145Z,101495.91
2022-09-04T01:46:58.086Z,101493.25
2022-09-04T01:50:07.201Z,101496.44
2022-09-04T01:53:14.817Z,101493.94
2022-09-04T01:56:22.660Z,101494.25
2022-09-04T01:59:30.365Z,101494.63
2022-09-04T02:02:44.809Z,101495.66
2022-09-04T02:06:02.647Z,101485.72
2022-09-04T02:09:22.710Z,101488.88
2022-09-04T02:12:34.398Z,101496.03
2022-09-04T02:15:45.010Z,101493.25
2022-09-04T02:18:55.550Z,101503.28
2022-09-04T02:22:04.675Z,101496.50
2022-09-04T02:25:17.600Z,101502.06
2022-09-04T02:28:27.575Z,101499.72
2022-09-04T02:31:42.064Z,101501.38
2022-09-04T02:34:53.180Z,101503.09
2022-09-04T02:38:06.503Z,101505.59
2022-09-04T02:41:21.455Z,101512.91
2022-09-04T02:44:38.518Z,101504.66
2022-09-04T02:47:50.354Z,101509.59
2022-09-04T02:51:14.664Z,101516.34
2022-09-04T02:54:31.090Z,101511.59
2022-09-04T02:57:50.315Z,101508.06
2022-09-04T03:01:02.931Z,101510.16
2022-09-04T03:04:16.380Z,101513.06
2022-09-04T03:07:25.608Z,101515.06
2022-09-04T03:10:34.170Z,101517.44
2022-09-04T03:13:46.438Z,101526.00
2022-09-04T03:16:54.746Z,101529.38
2022-09-04T03:20:04.578Z,101528.69
2022-09-04T03:23:16.347Z,101543.81
2022-09-04T03:26:25.762Z,101543.94
2022-09-04T03:29:36.904Z,101540.06
2022-09-04T03:32:49.405Z,101542.47
2022-09-04T03:36:01.765Z,101543.66
2022-09-04T03:39:15.731Z,101546.19
2022-09-04T03:42:30.853Z,101550.91
2022-09-04T03:45:43.913Z,101548.22
2022-09-04T03:49:05.571Z,101549.41
2022-09-04T03:52:17.470Z,101552.50
2022-09-04T03:55:41.069Z,101563.03
2022-09-04T03:58:55.761Z,101561.63
2022-09-04T04:02:08.330Z,101564.63
2022-09-04T04:05:29.086Z,101570.94
2022-09-04T04:09:11.811Z,101580.22
2022-09-04T04:12:31.882Z,101580.06
2022-09-04T04:15:47.135Z,101590.09
2022-09-04T04:19:10.721Z,101589.41
2022-09-04T04:22:30.102Z,101592.16
2022-09-04T04:26:01.058Z,101586.97
2022-09-04T04:29:25.361Z,101594.53
2022-09-04T04:32:46.121Z,101590.09
2022-09-04T04:35:57.848Z,101599.25
2022-09-04T04:39:12.801Z,101593.16
2022-09-04T04:42:29.488Z,101610.38
2022-09-04T04:45:54.790Z,101607.19
2022-09-04T04:49:14.139Z,101627.00
2022-09-04T04:52:33.423Z,101623.09
2022-09-04T04:55:43.130Z,101634.94
2022-09-04T04:58:59.244Z,101632.66
2022-09-04T05:02:10.055Z,101631.63
2022-09-04T05:05:18.941Z,101627.28
2022-09-04T05:08:33.289Z,101641.03
2022-09-04T05:11:41.015Z,101628.72
2022-09-04T05:14:51.439Z,101636.63
2022-09-04T05:18:00.551Z,101635.81
2022-09-04T05:21:13.074Z,101637.25
2022-09-04T05:24:23.573Z,101637.25
2022-09-04T05:27:47.076Z,101641.75
2022-09-04T05:30:56.584Z,101649.66
2022-09-04T05:34:09.298Z,101646.88
2022-09-04T05:37:17.952Z,101648.81
2022-09-04T05:40:28.826Z,101657.19
2022-09-04T05:43:42.351Z,101657.06
2022-09-04T05:46:59.238Z,101658.94
2022-09-04T05:50:26.057Z,101668.81
2022-09-04T05:54:19.539Z,101667.75
2022-09-04T05:57:40.987Z,101664.88
2022-09-04T06:00:51.635Z,101671.28
2022-09-04T06:04:25.615Z,101672.38
2022-09-04T06:07:32.536Z,101674.31
2022-09-04T06:10:53.443Z,101674.94
2022-09-04T06:14:18.578Z,101679.22
2022-09-04T06:17:32.748Z,101680.09
2022-09-04T06:20:48.667Z,101679.22
2022-09-04T06:24:14.733Z,101681.88
2022-09-04T06:27:48.542Z,101680.53
2022-09-04T06:31:02.640Z,101681.41
2022-09-04T06:34:20.351Z,101686.53
2022-09-04T06:37:36.436Z,101681.44
2022-09-04T06:40:51.347Z,101684.06
2022-09-04T06:44:06.343Z,101694.13
2022-09-04T06:47:23.142Z,101695.59
2022-09-04T06:50:35.712Z,101694.31
2022-09-04T06:53:49.078Z,101692.19
2022-09-04T06:57:11.021Z,101698.69
2022-09-04T07:00:15.625Z,101694.53
2022-09-04T07:03:30.417Z,101693.31
2022-09-04T07:06:49.905Z,101696.53
2022-09-04T07:10:01.472Z,101696.38
2022-09-04T07:13:33.323Z,101706.94
2022-09-04T07:16:42.774Z,101707.22
2022-09-04T07:19:58.871Z,101708.47
2022-09-04T07:23:23.715Z,101708.78
2022-09-04T07:26:35.195Z,101708.28
2022-09-04T07:29:41.330Z,101706.38
2022-09-04T07:32:50.047Z,101707.72
2022-09-04T07:36:03.425Z,101708.97
2022-09-04T07:39:15.345Z,101719.81
2022-09-04T07:42:25.956Z,101722.50
2022-09-04T07:45:34.755Z,101723.97
2022-09-04T07:48:42.006Z,101724.44
2022-09-04T07:51:54.707Z,101735.91
2022-09-04T07:55:13.112Z,101739.44
2022-09-04T07:58:49.407Z,101738.47
2022-09-04T08:02:13.574Z,101739.16
2022-09-04T08:05:25.338Z,101739.69
2022-09-04T08:08:53.141Z,101740.84
2022-09-04T08:12:17.692Z,101742.06
2022-09-04T08:15:21.968Z,101735.78
2022-09-04T08:18:46.067Z,101750.91
2022-09-04T08:21:52.823Z,101751.91
2022-09-04T08:25:11.105Z,101761.28
2022-09-04T08:28:33.264Z,101760.84
2022-09-04T08:31:42.881Z,101755.31
2022-09-04T08:35:01.673Z,101760.13
2022-09-04T08:38:19.996Z,101769.81
2022-09-04T08:41:51.186Z,101769.84
2022-09-04T08:45:18.878Z,101765.00
2022-09-04T08:48:50.130Z,101787.50
2022-09-04T08:52:28.094Z,101777.75
2022-09-04T08:55:47.080Z,101778.41
2022-09-04T08:59:31.174Z,101779.63
2022-09-04T09:03:12.833Z,101777.81
2022-09-04T09:06:57.180Z,101778.44
2022-09-04T09:10:35.713Z,101777.94
2022-09-04T09:14:14.401Z,101776.72
2022-09-04T09:17:35.212Z,101779.84
2022-09-04T09:20:50.348Z,101771.94
2022-09-04T09:24:22.522Z,101776.38
2022-09-04T09:28:17.250Z,101777.19
2022-09-04T09:32:13.781Z,101771.16
2022-09-04T09:36:03.065Z,101779.59
2022-09-04T09:39:37.674Z,101777.41
2022-09-04T09:43:00.373Z,101769.81
2022-09-04T09:46:36.431Z,101771.78
2022-09-04T09:50:17.161Z,101768.09
2022-09-04T09:53:49.516Z,101778.81
2022-09-04T09:57:21.568Z,101774.25
2022-09-04T10:00:47.250Z,101778.66
2022-09-04T10:04:11.659Z,101770.47
2022-09-04T10:07:42.599Z,101769.69
2022-09-04T10:11:03.611Z,101760.06
2022-09-04T10:14:42.587Z,101759.66
2022-09-04T10:18:26.118Z,101761.34
2022-09-04T10:21:51.721Z,101749.06
2022-09-04T10:25:32.102Z,101751.53
2022-09-04T10:29:12.267Z,101762.47
2022-09-04T10:32:41.554Z,101762.91
2022-09-04T10:36:00.495Z,101762.78
2022-09-04T10:39:35.555Z,101763.44
2022-09-04T10:42:46.809Z,101757.06
2022-09-04T10:46:02.017Z,101756.59
2022-09-04T10:49:34.768Z,101752.72
2022-09-04T10:53:15.426Z,101761.41
2022-09-04T10:56:26.220Z,101767.94
2022-09-04T10:59:48.543Z,101752.84
2022-09-04T11:03:29.769Z,101758.91
2022-09-04T11:07:10.439Z,101758.13
2022-09-04T11:10:25.049Z,101761.78
2022-09-04T11:14:06.821Z,101765.06
2022-09-04T11:17:38.799Z,101758.88
2022-09-04T11:21:15.861Z,101755.28
2022-09-04T11:24:47.680Z,101751.84
2022-09-04T11:28:06.397Z,101759.06
2022-09-04T11:31:26.116Z,101749.81
2022-09-04T11:35:14.072Z,101758.38
2022-09-04T11:38:43.857Z,101749.78
2022-09-04T11:42:20.307Z,101748.72
2022-09-04T11:45:48.822Z,101740.00
2022-09-04T11:49:25.774Z,101733.94
2022-09-04T11:52:47.400Z,101728.81
2022-09-04T11:56:10.022Z,101726.13
2022-09-04T11:59:42.324Z,101729.69
2022-09-04T12:03:18.633Z,101721.38
2022-09-04T12:06:37.340Z,101722.06
2022-09-04T12:10:02.157Z,101716.81
2022-09-04T12:13:22.081Z,101720.69
2022-09-04T12:17:15.283Z,101720.34
2022-09-04T12:20:55.451Z,101730.94
2022-09-04T12:24:15.898Z,101727.88
2022-09-04T12:27:54.580Z,101728.84
2022-09-04T12:31:16.839Z,101731.41
2022-09-04T12:34:47.386Z,101733.50
2022-09-04T12:38:05.730Z,101724.09
2022-09-04T12:41:16.466Z,101726.59
2022-09-04T12:44:26.853Z,101722.09
2022-09-04T12:47:41.205Z,101729.38
2022-09-04T12:50:53.493Z,101715.25
2022-09-04T12:54:15.309Z,101717.94
2022-09-04T12:57:33.772Z,101719.38
2022-09-04T13:00:48.796Z,101727.94
2022-09-04T13:04:05.577Z,101719.59
2022-09-04T13:07:27.527Z,101721.53
2022-09-04T13:10:37.401Z,101722.38
2022-09-04T13:13:51.689Z,101730.69
2022-09-04T13:17:03.526Z,101723.19
2022-09-04T13:20:20.853Z,101724.25
2022-09-04T13:23:39.208Z,101715.66
2022-09-04T13:27:04.606Z,101729.16
2022-09-04T13:30:09.994Z,101722.50
2022-09-04T13:33:21.310Z,101716.25
2022-09-04T13:36:35.868Z,101725.44
2022-09-04T13:40:01.010Z,101721.38
2022-09-04T13:43:41.492Z,101721.69
2022-09-04T13:46:50.083Z,101716.91
2022-09-04T13:49:57.366Z,101728.91
2022-09-04T13:53:07.119Z,101722.22
2022-09-04T13:56:18.679Z,101726.47
2022-09-04T13:59:23.440Z,101730.72
2022-09-04T14:02:31.772Z,101731.66
2022-09-04T14:05:37.579Z,101730.53
2022-09-04T14:08:44.303Z,101737.16
2022-09-04T14:12:07.293Z,101736.13
2022-09-04T14:15:34.328Z,101737.53
2022-09-04T14:18:59.160Z,101738.94
2022-09-04T14:22:12.387Z,101737.44
2022-09-04T14:25:22.246Z,101746.06
2022-09-04T14:28:34.562Z,101737.81
2022-09-04T14:31:46.884Z,101745.25
2022-09-04T14:35:02.733Z,101735.72
2022-09-04T14:38:27.823Z,101742.81
2022-09-04T14:41:46.680Z,101738.97
2022-09-04T14:45:06.021Z,101747.00
2022-09-04T14:48:12.609Z,101746.56
2022-09-04T14:51:18.281Z,101750.13
2022-09-04T14:54:27.630Z,101737.53
2022-09-04T14:57:35.155Z,101744.97
2022-09-04T15:00:57.413Z,101738.69
2022-09-04T15:04:06.576Z,101743.44
2022-09-04T15:07:29.714Z,101735.56
2022-09-04T15:10:47.007Z,101739.28
2022-09-04T15:13:54.811Z,101742.81
2022-09-04T15:17:01.092Z,101749.31
2022-09-04T15:20:09.077Z,101748.03
2022-09-04T15:23:20.760Z,101746.44
2022-09-04T15:26:29.581Z,101745.56
2022-09-04T15:29:39.141Z,101746.44
2022-09-04T15:32:43.312Z,101743.84
2022-09-04T15:35:58.816Z,101747.28
2022-09-04T15:39:04.642Z,101738.84
2022-09-04T15:42:12.174Z,101743.56
2022-09-04T15:45:24.957Z,101748.44
2022-09-04T15:48:35.721Z,101745.69
2022-09-04T15:51:42.346Z,101737.09
2022-09-04T15:55:22.201Z,101749.50
2022-09-04T15:58:31.484Z,101748.22
2022-09-04T16:01:44.436Z,101740.31
2022-09-04T16:04:52.883Z,101744.25
2022-09-04T16:08:04.065Z,101750.44
2022-09-04T16:11:18.857Z,101752.06
2022-09-04T16:14:26.221Z,101744.97
2022-09-04T16:17:34.302Z,101739.94
2022-09-04T16:20:40.420Z,101752.59
2022-09-04T16:23:43.489Z,101750.28
2022-09-04T16:26:51.332Z,101750.91
2022-09-04T16:29:58.861Z,101756.31
2022-09-04T16:33:10.143Z,101762.91
2022-09-04T16:36:24.564Z,101757.41
2022-09-04T16:39:33.197Z,101757.09
2022-09-04T16:42:42.212Z,101763.88
2022-09-04T16:45:50.709Z,101765.50
2022-09-04T16:48:59.650Z,101758.09
2022-09-04T16:52:21.146Z,101761.72
2022-09-04T16:55:28.828Z,101765.94
2022-09-04T16:58:43.889Z,101762.56
2022-09-04T17:01:51.793Z,101762.91
2022-09-04T17:05:03.831Z,101769.00
2022-09-04T17:08:16.295Z,101769.09
2022-09-04T17:11:24.170Z,101770.94
2022-09-04T17:14:35.727Z,101779.81
2022-09-04T17:17:42.364Z,101781.09
2022-09-04T17:24:39.323Z,101774.28
2022-09-04T17:29:07.872Z,101780.63
2022-09-04T17:29:13.395Z,101783.69
2022-09-04T17:31:25.837Z,101784.94
2022-09-04T17:40:37.044Z,101791.25
2022-09-04T17:40:40.415Z,101788.06
2022-09-04T17:42:04.638Z,101785.47
2022-09-04T17:45:17.390Z,101783.84
2022-09-04T17:48:24.967Z,101788.25
2022-09-04T17:51:31.985Z,101803.53
2022-09-04T17:54:42.305Z,101805.13
2022-09-04T17:58:05.300Z,101800.88
2022-09-04T18:01:14.716Z,101806.78
2022-09-04T18:04:26.726Z,101806.16
2022-09-04T18:08:08.290Z,101824.81
2022-09-04T18:11:04.179Z,101818.38
2022-09-04T18:14:13.489Z,101827.19
2022-09-04T18:17:22.253Z,101828.38
2022-09-04T18:20:36.295Z,101827.13
2022-09-04T18:24:01.517Z,101827.84
2022-09-04T18:27:11.921Z,101831.78
2022-09-04T18:37:11.799Z,101829.44
2022-09-04T18:37:17.999Z,101832.47
2022-09-04T18:37:46.516Z,101837.47
2022-09-04T18:41:32.521Z,101843.31
2022-09-04T18:50:31.759Z,101848.94
2022-09-04T18:50:36.245Z,101847.22
2022-09-04T18:51:20.912Z,101852.00
2022-09-04T18:54:30.485Z,101851.22
2022-09-04T18:57:36.195Z,101863.66
2022-09-04T19:00:48.010Z,101855.53
2022-09-04T19:03:56.280Z,101860.00
2022-09-04T19:07:07.065Z,101861.41
2022-09-04T19:10:18.946Z,101857.09
2022-09-04T19:13:28.259Z,101857.28
2022-09-04T19:16:38.089Z,101859.88
2022-09-04T19:19:47.810Z,101863.25
2022-09-04T19:22:56.033Z,101858.50
2022-09-04T19:26:07.273Z,101866.81
2022-09-04T19:29:18.444Z,101863.88
2022-09-04T19:32:28.109Z,101863.13
2022-09-04T19:35:38.174Z,101864.63
2022-09-04T19:45:17.287Z,101864.81
2022-09-04T19:46:03.965Z,101867.19
2022-09-04T19:46:14.679Z,101871.16
2022-09-04T19:50:46.169Z,101879.88
2022-09-04T19:53:33.786Z,101883.00
2022-09-04T19:56:25.783Z,101878.13
2022-09-04T19:59:31.363Z,101880.38
2022-09-04T20:02:40.010Z,101879.53
2022-09-04T20:05:55.857Z,101880.59
2022-09-04T20:09:12.127Z,101893.91
2022-09-04T20:12:20.616Z,101887.06
2022-09-04T20:15:31.680Z,101885.97
2022-09-04T20:18:41.693Z,101894.47
2022-09-04T20:21:50.022Z,101895.88
2022-09-04T20:25:02.094Z,101898.44
2022-09-04T20:28:16.463Z,101903.03
2022-09-04T20:31:36.475Z,101904.03
2022-09-04T20:34:48.977Z,101909.66
2022-09-04T20:37:55.554Z,101904.22
2022-09-04T20:41:08.540Z,101909.88
2022-09-04T20:44:20.477Z,101902.31
2022-09-04T20:52:44.177Z,101905.38
2022-09-04T20:52:58.064Z,101918.28
2022-09-04T20:54:45.969Z,101917.53
2022-09-04T21:03:06.011Z,101916.56
2022-09-04T21:03:20.357Z,101915.97
2022-09-04T21:05:28.275Z,101919.53
2022-09-04T21:08:36.709Z,101925.06
2022-09-04T21:11:45.745Z,101929.88
2022-09-04T21:14:55.102Z,101930.81
2022-09-04T21:18:29.402Z,101936.59
2022-09-04T21:21:54.346Z,101934.97
2022-09-04T21:25:19.605Z,101946.00
2022-09-04T21:28:48.959Z,101947.75
2022-09-04T21:32:16.622Z,101950.81
2022-09-04T21:35:22.846Z,101952.16
2022-09-04T21:38:52.143Z,101961.63
2022-09-04T21:42:20.627Z,101954.88
2022-09-04T21:45:52.728Z,101964.59
2022-09-04T21:49:09.964Z,101973.34
2022-09-04T21:52:31.525Z,101973.97
2022-09-04T22:01:10.219Z,101974.47
2022-09-04T22:02:43.809Z,101967.34
2022-09-04T22:03:19.274Z,101975.06
2022-09-04T22:07:18.175Z,101974.69
2022-09-04T22:13:28.960Z,101973.16
2022-09-04T22:13:57.757Z,101972.19
2022-09-04T22:17:12.217Z,101976.25
2022-09-04T22:20:34.853Z,101967.19
2022-09-04T22:24:41.135Z,101980.28
2022-09-04T22:28:17.049Z,101972.59
2022-09-04T22:31:48.400Z,101976.41
2022-09-04T22:35:21.319Z,101977.00
2022-09-04T22:38:35.761Z,101971.44
2022-09-04T22:42:23.164Z,101965.94
2022-09-04T22:45:48.439Z,101960.47
2022-09-04T22:49:12.153Z,101959.84
2022-09-04T22:52:37.787Z,101964.69
2022-09-04T22:56:17.806Z,101964.13
2022-09-04T22:59:35.247Z,101965.34
2022-09-04T23:03:09.183Z,101968.94
2022-09-04T23:09:22.102Z,101960.34
2022-09-04T23:13:46.380Z,101970.47
2022-09-04T23:14:07.481Z,101974.31
2022-09-04T23:17:27.454Z,101977.19
2022-09-04T23:26:39.013Z,101976.72
2022-09-04T23:26:49.987Z,101979.50
2022-09-04T23:28:27.645Z,101983.34
2022-09-04T23:31:48.577Z,101977.88
2022-09-04T23:35:16.059Z,101977.97
2022-09-04T23:38:57.142Z,101967.38
2022-09-04T23:42:16.225Z,101962.75
2022-09-04T23:45:37.659Z,101968.53
2022-09-04T23:49:26.464Z,101956.19
2022-09-04T23:52:48.916Z,101957.91
2022-09-04T23:56:05.497Z,101963.56
2022-09-04T23:59:37.412Z,101967.25
